createdAt,value
2023-04-03T00:01:52.133Z,3.50
2023-04-03T00:04:19.690Z,3.47
2023-04-03T00:06:47.258Z,3.63
2023-04-03T00:09:14.733Z,3.97
2023-04-03T00:11:42.231Z,3.75
2023-04-03T00:14:09.767Z,4.18
2023-04-03T00:16:37.290Z,4.53
2023-04-03T00:19:04.903Z,4.30
2023-04-03T00:21:32.915Z,4.28
2023-04-03T00:24:00.588Z,4.97
2023-04-03T00:26:28.070Z,4.60
2023-04-03T00:28:55.825Z,5.00
2023-04-03T00:31:23.670Z,4.95
2023-04-03T00:33:51.302Z,4.20
2023-04-03T00:36:18.970Z,5.03
2023-04-03T00:38:46.723Z,4.10
2023-04-03T00:41:14.225Z,3.40
2023-04-03T00:43:41.790Z,4.22
2023-04-03T00:46:09.783Z,3.35
2023-04-03T00:48:44.082Z,3.33
2023-04-03T00:51:16.124Z,3.58
2023-04-03T00:53:56.407Z,3.55
2023-04-03T00:56:28.271Z,3.75
2023-04-03T00:59:02.555Z,3.35
2023-04-03T01:01:31.985Z,3.08
2023-04-03T01:04:04.335Z,2.80
2023-04-03T01:06:37.902Z,3.35
2023-04-03T01:09:09.667Z,3.30
2023-04-03T01:11:37.358Z,3.53
2023-04-03T01:14:07.281Z,3.65
2023-04-03T01:16:34.825Z,3.58
2023-04-03T01:19:03.031Z,3.38
2023-04-03T01:21:49.401Z,3.80
2023-04-03T01:24:40.730Z,3.75
2023-04-03T01:27:13.385Z,4.00
2023-04-03T01:29:42.651Z,3.70
2023-04-03T01:32:10.887Z,3.72
2023-04-03T01:34:39.003Z,4.10
2023-04-03T01:37:37.482Z,4.43
2023-04-03T01:40:22.580Z,4.82
2023-04-03T01:42:52.980Z,4.50
2023-04-03T01:45:28.138Z,3.38
2023-04-03T01:48:31.388Z,3.70
2023-04-03T01:50:59.058Z,3.80
2023-04-03T01:53:26.765Z,4.00
2023-04-03T01:55:54.654Z,3.60
2023-04-03T01:58:22.286Z,3.03
2023-04-03T02:00:52.772Z,3.20
2023-04-03T02:03:20.724Z,3.35
2023-04-03T02:05:49.436Z,2.88
2023-04-03T02:08:20.060Z,3.75
2023-04-03T02:10:52.112Z,3.38
2023-04-03T02:13:20.088Z,5.20
2023-04-03T02:15:47.725Z,5.65
2023-04-03T02:18:18.583Z,6.38
2023-04-03T02:20:47.683Z,6.88
2023-04-03T02:23:15.125Z,8.15
2023-04-03T02:25:42.611Z,8.43
2023-04-03T02:28:10.167Z,6.88
2023-04-03T02:30:37.808Z,6.70
2023-04-03T02:33:05.958Z,7.10
2023-04-03T02:35:33.574Z,6.78
2023-04-03T02:38:01.531Z,7.53
2023-04-03T02:40:29.084Z,7.15
2023-04-03T02:42:56.526Z,7.40
2023-04-03T02:45:25.727Z,6.97
2023-04-03T02:47:53.597Z,7.75
2023-04-03T02:50:21.244Z,10.25
2023-04-03T02:52:48.798Z,7.82
2023-04-03T02:55:17.256Z,7.25
2023-04-03T02:57:47.664Z,7.78
2023-04-03T03:00:15.796Z,7.30
2023-04-03T03:02:43.341Z,8.13
2023-04-03T03:05:10.945Z,8.52
2023-04-03T03:07:38.457Z,7.80
2023-04-03T03:10:06.467Z,8.38
2023-04-03T03:12:34.046Z,8.38
2023-04-03T03:15:01.512Z,7.90
2023-04-03T03:17:30.086Z,6.32
2023-04-03T03:19:58.060Z,5.38
2023-04-03T03:22:26.234Z,6.47
2023-04-03T03:24:53.959Z,5.53
2023-04-03T03:27:21.957Z,5.20
2023-04-03T03:29:49.610Z,5.63
2023-04-03T03:32:17.344Z,5.70
2023-04-03T03:34:44.751Z,5.40
2023-04-03T03:37:12.276Z,4.90
2023-04-03T03:39:40.057Z,4.60
2023-04-03T03:42:07.652Z,4.20
2023-04-03T03:44:35.172Z,4.90
2023-04-03T03:47:02.739Z,3.45
2023-04-03T03:49:30.729Z,3.70
2023-04-03T03:51:58.569Z,3.35
2023-04-03T03:54:26.057Z,3.42
2023-04-03T03:56:53.884Z,3.35
2023-04-03T03:59:21.906Z,3.60
2023-04-03T04:01:49.750Z,3.63
2023-04-03T04:04:18.009Z,3.17
2023-04-03T04:06:46.345Z,2.90
2023-04-03T04:09:14.071Z,3.53
2023-04-03T04:11:41.993Z,3.28
2023-04-03T04:14:13.858Z,3.65
2023-04-03T04:16:43.379Z,3.20
2023-04-03T04:19:16.666Z,3.83
2023-04-03T04:21:46.832Z,3.17
2023-04-03T04:24:14.607Z,3.63
2023-04-03T04:26:42.545Z,3.45
2023-04-03T04:29:13.301Z,3.88
2023-04-03T04:31:41.040Z,4.50
2023-04-03T04:34:08.906Z,3.83
2023-04-03T04:36:38.092Z,3.55
2023-04-03T04:39:06.530Z,4.70
2023-04-03T04:41:34.179Z,4.35
2023-04-03T04:44:03.978Z,3.65
2023-04-03T04:46:33.104Z,3.47
2023-04-03T04:49:01.170Z,3.72
2023-04-03T04:51:41.137Z,3.83
2023-04-03T04:54:17.841Z,4.93
2023-04-03T04:56:47.665Z,3.50
2023-04-03T04:59:15.242Z,4.28
2023-04-03T05:01:43.561Z,3.80
2023-04-03T05:04:16.714Z,4.15
2023-04-03T05:06:46.569Z,4.10
2023-04-03T05:09:21.361Z,3.80
2023-04-03T05:11:50.155Z,3.55
2023-04-03T05:14:20.045Z,3.25
2023-04-03T05:16:48.897Z,3.10
2023-04-03T05:19:17.788Z,3.42
2023-04-03T05:21:45.577Z,3.28
2023-04-03T05:24:17.354Z,3.33
2023-04-03T05:26:45.563Z,3.88
2023-04-03T05:29:14.314Z,4.20
2023-04-03T05:31:42.576Z,3.75
2023-04-03T05:34:12.597Z,3.75
2023-04-03T05:36:41.452Z,3.58
2023-04-03T05:39:10.191Z,4.03
2023-04-03T05:41:41.111Z,3.85
2023-04-03T05:44:08.659Z,4.20
2023-04-03T05:46:36.576Z,4.72
2023-04-03T05:49:07.281Z,5.57
2023-04-03T05:51:38.927Z,5.50
2023-04-03T05:54:29.946Z,5.45
2023-04-03T05:57:04.821Z,5.18
2023-04-03T05:59:32.472Z,4.93
2023-04-03T06:02:02.518Z,5.15
2023-04-03T06:04:30.351Z,5.10
2023-04-03T06:06:59.356Z,4.60
2023-04-03T06:09:33.551Z,5.28
2023-04-03T06:12:01.990Z,5.55
2023-04-03T06:14:32.092Z,5.03
2023-04-03T06:17:00.743Z,4.50
2023-04-03T06:19:28.766Z,4.60
2023-04-03T06:21:58.196Z,5.15
2023-04-03T06:24:26.588Z,4.60
2023-04-03T06:26:54.488Z,4.88
2023-04-03T06:29:22.810Z,4.60
2023-04-03T06:31:51.332Z,4.38
2023-04-03T06:34:19.253Z,4.60
2023-04-03T06:36:46.791Z,4.47
2023-04-03T06:39:21.964Z,3.85
2023-04-03T06:41:50.261Z,4.30
2023-04-03T06:44:19.023Z,4.20
2023-04-03T06:46:47.724Z,3.97
2023-04-03T06:49:16.267Z,4.53
2023-04-03T06:51:43.800Z,5.35
2023-04-03T06:54:11.558Z,3.88
2023-04-03T06:56:39.078Z,4.38
2023-04-03T06:59:06.637Z,3.97
2023-04-03T07:01:34.254Z,4.00
2023-04-03T07:04:01.895Z,4.20
2023-04-03T07:06:29.541Z,3.38
2023-04-03T07:08:57.363Z,3.75
2023-04-03T07:11:25.321Z,3.90
2023-04-03T07:13:53.157Z,3.58
2023-04-03T07:16:21.632Z,3.90
2023-04-03T07:18:49.616Z,3.65
2023-04-03T07:21:17.069Z,3.72
2023-04-03T07:23:44.759Z,3.30
2023-04-03T07:26:12.425Z,3.55
2023-04-03T07:28:41.509Z,3.40
2023-04-03T07:31:14.743Z,3.65
2023-04-03T07:33:43.506Z,4.15
2023-04-03T07:36:16.213Z,3.63
2023-04-03T07:38:43.799Z,3.35
2023-04-03T07:41:21.316Z,3.08
2023-04-03T07:43:51.002Z,3.45
2023-04-03T07:46:19.005Z,3.25
2023-04-03T07:48:46.616Z,2.85
2023-04-03T07:51:14.448Z,2.60
2023-04-03T07:53:42.501Z,3.35
2023-04-03T07:56:10.949Z,2.60
2023-04-03T07:58:38.556Z,2.63
2023-04-03T08:01:06.100Z,2.20
2023-04-03T08:03:33.820Z,2.90
2023-04-03T08:06:09.112Z,1.90
2023-04-03T08:08:39.325Z,2.50
2023-04-03T08:11:07.997Z,2.40
2023-04-03T08:13:36.917Z,2.28
2023-04-03T08:16:18.608Z,1.80
2023-04-03T08:18:46.178Z,1.38
2023-04-03T08:21:14.335Z,1.88
2023-04-03T08:23:42.976Z,1.60
2023-04-03T08:26:12.866Z,1.60
2023-04-03T08:28:41.784Z,1.45
2023-04-03T08:31:13.048Z,1.65
2023-04-03T08:33:41.370Z,1.67
2023-04-03T08:36:17.680Z,1.70
2023-04-03T08:38:45.331Z,1.70
2023-04-03T08:41:38.023Z,1.70
2023-04-03T08:44:37.645Z,1.65
2023-04-03T08:47:12.233Z,2.00
2023-04-03T08:49:52.566Z,1.95
2023-04-03T08:52:27.642Z,1.98
2023-04-03T08:55:02.566Z,1.85
2023-04-03T08:57:37.122Z,1.90
2023-04-03T09:00:27.760Z,2.40
2023-04-03T09:02:57.847Z,2.05
2023-04-03T09:05:41.445Z,1.95
2023-04-03T09:08:27.313Z,1.60
2023-04-03T09:11:08.642Z,1.88
2023-04-03T09:13:53.748Z,2.05
2023-04-03T09:16:30.505Z,2.00
2023-04-03T09:19:10.717Z,1.85
2023-04-03T09:21:43.517Z,2.08
2023-04-03T09:24:15.347Z,1.60
2023-04-03T09:26:48.995Z,1.83
2023-04-03T09:29:22.004Z,1.60
2023-04-03T09:31:54.164Z,2.05
2023-04-03T09:34:29.131Z,1.73
2023-04-03T09:37:07.265Z,1.50
2023-04-03T09:39:51.262Z,2.45
2023-04-03T09:42:23.873Z,1.70
2023-04-03T09:45:00.844Z,1.60
2023-04-03T09:47:31.427Z,1.75
2023-04-03T09:50:11.556Z,1.42
2023-04-03T09:52:40.552Z,1.60
2023-04-03T09:55:15.708Z,1.48
2023-04-03T09:57:43.493Z,1.90
2023-04-03T10:00:33.552Z,2.15
2023-04-03T10:03:01.788Z,1.80
2023-04-03T10:05:32.439Z,2.30
2023-04-03T10:08:10.842Z,1.70
2023-04-03T10:10:39.663Z,1.70
2023-04-03T10:13:22.437Z,1.60
2023-04-03T10:15:57.719Z,1.10
2023-04-03T10:18:48.234Z,1.50
2023-04-03T10:21:44.081Z,1.30
2023-04-03T10:24:22.257Z,1.35
2023-04-03T10:27:07.015Z,1.40
2023-04-03T10:30:05.072Z,1.50
2023-04-03T10:33:11.635Z,1.45
2023-04-03T10:36:10.671Z,1.58
2023-04-03T10:38:47.424Z,1.75
2023-04-03T10:41:36.164Z,1.42
2023-04-03T10:44:09.396Z,1.67
2023-04-03T10:46:45.139Z,1.30
2023-04-03T10:49:36.125Z,1.35
2023-04-03T10:52:20.553Z,1.05
2023-04-03T10:55:20.335Z,1.05
2023-04-03T10:57:50.740Z,0.70
2023-04-03T11:00:23.869Z,0.90
2023-04-03T11:03:12.060Z,0.90
2023-04-03T11:05:46.460Z,0.73
2023-04-03T11:08:52.678Z,1.20
2023-04-03T11:11:29.291Z,0.88
2023-04-03T11:14:03.784Z,1.15
2023-04-03T11:16:51.126Z,1.10
2023-04-03T11:19:37.944Z,1.00
2023-04-03T11:22:22.592Z,1.30
2023-04-03T11:25:11.922Z,1.20
2023-04-03T11:27:50.155Z,1.23
2023-04-03T11:30:29.464Z,1.25
2023-04-03T11:33:20.093Z,1.10
2023-04-03T11:35:53.217Z,0.73
2023-04-03T11:38:40.870Z,0.80
2023-04-03T11:41:11.829Z,1.10
2023-04-03T11:43:56.801Z,1.10
2023-04-03T11:46:47.350Z,1.00
2023-04-03T11:49:52.329Z,1.30
2023-04-03T11:52:44.781Z,1.08
2023-04-03T11:55:24.322Z,1.23
2023-04-03T11:58:01.638Z,1.05
2023-04-03T12:00:52.296Z,1.45
2023-04-03T12:03:26.289Z,1.10
2023-04-03T12:06:01.533Z,1.27
2023-04-03T12:08:30.705Z,1.15
2023-04-03T12:11:10.700Z,1.10
2023-04-03T12:14:06.488Z,1.40
2023-04-03T12:16:44.138Z,1.33
2023-04-03T12:19:44.801Z,1.20
2023-04-03T12:22:16.640Z,1.10
2023-04-03T12:24:47.128Z,1.67
2023-04-03T12:27:25.944Z,1.60
2023-04-03T12:30:08.941Z,1.30
2023-04-03T12:32:50.562Z,1.52
2023-04-03T12:38:25.641Z,1.75
2023-04-03T12:41:44.240Z,1.23
2023-04-03T12:44:24.768Z,1.23
2023-04-03T12:46:53.859Z,1.00
2023-04-03T12:49:28.446Z,1.40
2023-04-03T12:51:56.622Z,1.55
2023-04-03T12:54:43.267Z,1.08
2023-04-03T12:57:17.585Z,1.10
2023-04-03T12:59:47.976Z,1.23
2023-04-03T13:02:25.174Z,1.20
2023-04-03T13:04:55.269Z,1.20
2023-04-03T13:07:28.578Z,1.20
2023-04-03T13:10:02.412Z,1.05
2023-04-03T13:12:32.276Z,1.20
2023-04-03T13:15:16.966Z,1.42
2023-04-03T13:17:44.971Z,0.90
2023-04-03T13:20:35.960Z,1.50
2023-04-03T13:23:19.175Z,1.38
2023-04-03T13:25:48.548Z,1.00
2023-04-03T13:28:24.156Z,1.38
2023-04-03T13:31:06.437Z,1.20
2023-04-03T13:33:39.168Z,1.23
2023-04-03T13:36:23.117Z,1.40
2023-04-03T13:39:05.946Z,1.25
2023-04-03T13:41:38.552Z,1.63
2023-04-03T13:44:24.463Z,1.13
2023-04-03T13:46:53.417Z,1.38
2023-04-03T13:49:44.106Z,1.40
2023-04-03T13:52:33.901Z,1.50
2023-04-03T13:55:18.853Z,1.42
2023-04-03T13:58:21.198Z,2.00
2023-04-03T14:00:53.445Z,1.85
2023-04-03T14:03:32.145Z,1.80
2023-04-03T14:06:02.791Z,2.10
2023-04-03T14:08:42.228Z,1.50
2023-04-03T14:11:19.257Z,1.80
2023-04-03T14:13:48.504Z,1.83
2023-04-03T14:16:28.679Z,1.50
2023-04-03T14:18:56.280Z,1.75
2023-04-03T14:21:24.472Z,1.50
2023-04-03T14:23:52.330Z,2.20
2023-04-03T14:26:23.709Z,1.70
2023-04-03T14:28:54.791Z,1.83
2023-04-03T14:31:24.049Z,1.75
2023-04-03T14:33:51.813Z,2.42
2023-04-03T14:36:26.571Z,2.33
2023-04-03T14:38:55.552Z,2.20
2023-04-03T14:41:26.753Z,2.28
2023-04-03T14:43:55.082Z,2.13
2023-04-03T14:46:43.037Z,1.98
2023-04-03T14:49:29.208Z,2.22
2023-04-03T14:52:00.111Z,2.10
2023-04-03T14:54:29.278Z,2.22
2023-04-03T14:56:59.517Z,2.20
2023-04-03T14:59:28.142Z,2.20
2023-04-03T15:01:55.793Z,2.55
2023-04-03T15:04:23.367Z,2.00
2023-04-03T15:06:52.870Z,1.95
2023-04-03T15:09:29.003Z,2.15
2023-04-03T15:11:57.025Z,2.13
2023-04-03T15:14:35.934Z,2.30
2023-04-03T15:17:08.582Z,2.00
2023-04-03T15:19:40.227Z,2.40
2023-04-03T15:22:08.224Z,1.95
2023-04-03T15:24:35.946Z,2.17
2023-04-03T15:27:03.717Z,1.88
2023-04-03T15:29:31.338Z,1.77
2023-04-03T15:31:59.005Z,1.95
2023-04-03T15:34:26.496Z,2.15
2023-04-03T15:36:54.187Z,2.17
2023-04-03T15:39:22.281Z,1.98
2023-04-03T15:41:49.844Z,1.88
2023-04-03T15:44:20.037Z,2.80
2023-04-03T15:46:50.084Z,2.22
2023-04-03T15:49:18.056Z,2.97
2023-04-03T15:51:45.869Z,2.80
2023-04-03T15:54:13.835Z,3.80
2023-04-03T15:56:41.374Z,8.02
2023-04-03T15:59:08.872Z,4.47
2023-04-03T16:01:37.612Z,4.82
2023-04-03T16:04:05.843Z,4.50
2023-04-03T16:06:34.670Z,4.45
2023-04-03T16:09:02.516Z,4.50
2023-04-03T16:11:30.253Z,4.63
2023-04-03T16:13:57.864Z,4.45
2023-04-03T16:16:27.256Z,4.50
2023-04-03T16:18:56.953Z,4.07
2023-04-03T16:21:25.244Z,5.50
2023-04-03T16:23:52.786Z,6.43
2023-04-03T16:26:21.341Z,6.55
2023-04-03T16:28:48.854Z,5.88
2023-04-03T16:31:17.150Z,4.57
2023-04-03T16:33:44.788Z,4.15
2023-04-03T16:36:12.370Z,3.38
2023-04-03T16:38:40.044Z,3.33
2023-04-03T16:41:07.544Z,3.58
2023-04-03T16:43:36.964Z,3.33
2023-04-03T16:46:04.769Z,3.05
2023-04-03T16:48:32.366Z,4.05
2023-04-03T16:51:00.044Z,3.65
2023-04-03T16:53:30.811Z,3.22
2023-04-03T16:56:01.498Z,3.65
2023-04-03T16:58:29.148Z,3.28
2023-04-03T17:00:56.775Z,3.10
2023-04-03T17:03:26.921Z,3.08
2023-04-03T17:05:54.840Z,3.47
2023-04-03T17:08:22.253Z,3.13
2023-04-03T17:10:51.900Z,4.10
2023-04-03T17:13:19.456Z,3.88
2023-04-03T17:15:47.115Z,3.97
2023-04-03T17:18:14.879Z,3.53
2023-04-03T17:20:42.339Z,4.10
2023-04-03T17:23:09.843Z,3.75
2023-04-03T17:25:37.483Z,3.72
2023-04-03T17:28:05.236Z,3.90
2023-04-03T17:30:32.819Z,3.25
2023-04-03T17:33:02.856Z,3.92
2023-04-03T17:35:31.262Z,3.30
2023-04-03T17:37:58.793Z,3.85
2023-04-03T17:40:26.332Z,3.22
2023-04-03T17:42:54.146Z,3.45
2023-04-03T17:45:21.993Z,3.22
2023-04-03T17:47:52.785Z,3.67
2023-04-03T17:50:21.330Z,3.70
2023-04-03T17:52:49.038Z,3.20
2023-04-03T17:55:17.978Z,3.60
2023-04-03T17:57:45.529Z,2.65
2023-04-03T18:00:17.190Z,3.78
2023-04-03T18:02:44.753Z,3.13
2023-04-03T18:05:12.497Z,3.38
2023-04-03T18:07:41.429Z,3.47
2023-04-03T18:10:09.531Z,2.90
2023-04-03T18:12:37.772Z,3.10
2023-04-03T18:15:06.516Z,2.78
2023-04-03T18:17:34.268Z,3.83
2023-04-03T18:20:01.963Z,2.80
2023-04-03T18:22:31.170Z,3.00
2023-04-03T18:24:59.209Z,3.20
2023-04-03T18:27:28.517Z,3.10
2023-04-03T18:30:03.194Z,3.10
2023-04-03T18:32:31.062Z,3.10
2023-04-03T18:35:00.014Z,3.20
2023-04-03T18:37:28.411Z,2.88
2023-04-03T18:39:55.891Z,3.20
2023-04-03T18:42:25.727Z,3.22
2023-04-03T18:45:06.439Z,2.90
2023-04-03T18:47:37.654Z,2.63
2023-04-03T18:50:07.080Z,2.53
2023-04-03T18:52:34.851Z,2.75
2023-04-03T18:55:02.509Z,2.90
2023-04-03T18:57:30.328Z,2.47
2023-04-03T18:59:57.806Z,2.65
2023-04-03T19:02:26.494Z,2.47
2023-04-03T19:04:54.245Z,2.70
2023-04-03T19:07:21.756Z,2.78
2023-04-03T19:09:49.302Z,2.60
2023-04-03T19:12:16.841Z,3.03
2023-04-03T19:14:44.901Z,2.80
2023-04-03T19:17:12.445Z,2.90
2023-04-03T19:19:39.957Z,2.85
2023-04-03T19:22:08.133Z,2.72
2023-04-03T19:24:35.913Z,2.92
2023-04-03T19:27:03.392Z,2.80
2023-04-03T19:29:31.010Z,3.25
2023-04-03T19:31:58.536Z,2.70
2023-04-03T19:34:26.247Z,3.25
2023-04-03T19:36:54.094Z,2.70
2023-04-03T19:39:21.714Z,2.53
2023-04-03T19:41:49.783Z,2.67
2023-04-03T19:44:17.375Z,2.50
2023-04-03T19:46:50.465Z,2.80
2023-04-03T19:49:20.068Z,2.90
2023-04-03T19:51:47.953Z,2.75
2023-04-03T19:54:15.649Z,2.63
2023-04-03T19:56:43.302Z,2.65
2023-04-03T19:59:10.908Z,2.85
2023-04-03T20:01:39.264Z,2.78
2023-04-03T20:04:06.925Z,2.78
2023-04-03T20:06:34.735Z,2.47
2023-04-03T20:09:02.276Z,2.42
2023-04-03T20:11:29.856Z,2.30
2023-04-03T20:13:57.423Z,2.67
2023-04-03T20:16:26.208Z,2.50
2023-04-03T20:18:56.627Z,2.30
2023-04-03T20:21:29.675Z,2.40
2023-04-03T20:23:57.202Z,2.40
2023-04-03T20:26:27.714Z,2.10
2023-04-03T20:28:57.854Z,2.40
2023-04-03T20:31:27.126Z,2.17
2023-04-03T20:33:54.835Z,2.60
2023-04-03T20:36:23.898Z,2.30
2023-04-03T20:38:52.750Z,2.38
2023-04-03T20:41:20.776Z,2.60
2023-04-03T20:43:48.666Z,2.92
2023-04-03T20:46:48.920Z,3.35
2023-04-03T20:49:49.334Z,3.05
2023-04-03T20:52:16.839Z,3.17
2023-04-03T20:54:44.625Z,2.92
2023-04-03T20:57:12.489Z,2.17
2023-04-03T20:59:42.551Z,2.58
2023-04-03T21:02:11.680Z,2.90
2023-04-03T21:04:47.450Z,2.30
2023-04-03T21:07:52.649Z,2.17
2023-04-03T21:10:57.790Z,2.10
2023-04-03T21:14:02.730Z,2.15
2023-04-03T21:16:30.127Z,2.03
2023-04-03T21:19:10.795Z,1.80
2023-04-03T21:21:38.979Z,2.15
2023-04-03T21:24:10.297Z,2.50
2023-04-03T21:26:39.744Z,2.00
2023-04-03T21:29:07.812Z,1.98
2023-04-03T21:31:57.159Z,1.88
2023-04-03T21:34:26.619Z,1.85
2023-04-03T21:36:55.579Z,2.17
2023-04-03T21:39:23.491Z,1.58
2023-04-03T21:41:52.265Z,2.00
2023-04-03T21:44:20.658Z,2.20
2023-04-03T21:46:49.067Z,2.22
2023-04-03T21:49:16.638Z,2.40
2023-04-03T21:51:44.104Z,2.30
2023-04-03T21:54:12.020Z,3.28
2023-04-03T21:56:39.613Z,3.58
2023-04-03T21:59:07.327Z,3.63
2023-04-03T22:01:35.021Z,4.10
2023-04-03T22:04:03.250Z,3.58
2023-04-03T22:06:30.727Z,4.07
2023-04-03T22:08:58.289Z,4.30
2023-04-03T22:11:27.431Z,4.95
2023-04-03T22:13:56.263Z,4.38
2023-04-03T22:16:24.125Z,4.40
2023-04-03T22:18:53.089Z,5.55
2023-04-03T22:21:24.477Z,4.15
2023-04-03T22:23:52.855Z,3.35
2023-04-03T22:26:21.871Z,2.80
2023-04-03T22:28:49.434Z,3.10
2023-04-03T22:31:17.243Z,2.95
2023-04-03T22:33:46.161Z,2.45
2023-04-03T22:36:14.609Z,2.60
2023-04-03T22:38:47.084Z,2.72
2023-04-03T22:41:14.597Z,2.58
2023-04-03T22:43:42.865Z,3.03
2023-04-03T22:46:10.367Z,2.70
2023-04-03T22:48:39.023Z,2.78
2023-04-03T22:51:07.787Z,3.00
2023-04-03T22:53:36.390Z,3.50
2023-04-03T22:56:08.765Z,4.05
2023-04-03T22:58:37.136Z,4.30
2023-04-03T23:01:07.054Z,4.15
2023-04-03T23:03:36.400Z,4.05
2023-04-03T23:06:05.320Z,4.38
2023-04-03T23:08:35.326Z,4.85
2023-04-03T23:11:02.936Z,3.92
2023-04-03T23:13:30.711Z,3.63
2023-04-03T23:15:59.986Z,2.80
2023-04-03T23:18:31.852Z,2.60
2023-04-03T23:21:00.240Z,2.90
2023-04-03T23:23:28.001Z,2.42
2023-04-03T23:25:58.979Z,2.97
2023-04-03T23:28:27.666Z,2.10
2023-04-03T23:31:04.190Z,2.58
2023-04-03T23:33:32.572Z,2.45
2023-04-03T23:36:05.956Z,2.03
2023-04-03T23:38:33.557Z,2.40
2023-04-03T23:41:01.635Z,2.63
2023-04-03T23:43:29.288Z,2.08
2023-04-03T23:45:56.907Z,2.45
2023-04-03T23:48:25.145Z,2.00
2023-04-03T23:50:52.858Z,2.00
2023-04-03T23:53:20.220Z,2.30
2023-04-03T23:55:47.713Z,2.60
2023-04-03T23:58:15.246Z,2.00
